Time;durP1;ratioP1;P1;durP2;ratioP2;P2;SDS_P1;SDS_P2;PMS_P1;PMS_P2;Temp;Humidity;BMP_temperature;BMP_pressure;BME280_temperature;BME280_humidity;BME280_pressure;Samples;Min_cycle;Max_cycle;Signal;HPM_P1;HPM_P2
2021/06/19 00:02:00;;;;;;;10.95;5.05;;;;;;;;;;5035661;28;20037;-68
2021/06/19 00:04:27;;;;;;;10.55;4.72;;;;;;;;;;5035566;28;20029;-67
2021/06/19 00:06:53;;;;;;;7.80;5.10;;;;;;;;;;5050873;28;20036;-67
2021/06/19 00:09:20;;;;;;;7.82;4.72;;;;;;;;;;5035252;28;20143;-66
2021/06/19 00:11:46;;;;;;;8.30;5.10;;;;;;;;;;5035488;28;20100;-68
2021/06/19 00:14:13;;;;;;;14.05;4.78;;;;;;;;;;5034872;28;20022;-68
2021/06/19 00:16:39;;;;;;;7.75;4.70;;;;;;;;;;5035111;28;20025;-68
2021/06/19 00:19:05;;;;;;;10.80;5.85;;;;;;;;;;5035508;28;20029;-67
2021/06/19 00:21:31;;;;;;;5.70;4.57;;;;;;;;;;5035364;28;20236;-69
2021/06/19 00:23:57;;;;;;;7.68;4.80;;;;;;;;;;5050472;28;20029;-67
2021/06/19 00:26:24;;;;;;;6.75;4.93;;;;;;;;;;5034907;28;20029;-65
2021/06/19 00:28:50;;;;;;;6.05;4.70;;;;;;;;;;5035460;28;20049;-69
2021/06/19 00:31:16;;;;;;;7.93;4.65;;;;;;;;;;5050487;28;20117;-66
2021/06/19 00:33:42;;;;;;;13.77;5.60;;;;;;;;;;5035090;28;20104;-68
2021/06/19 00:36:08;;;;;;;7.05;4.75;;;;;;;;;;5035066;28;20021;-67
2021/06/19 00:38:35;;;;;;;13.60;4.88;;;;;;;;;;5035251;28;20108;-67
2021/06/19 00:41:01;;;;;;;6.13;4.65;;;;;;;;;;5034944;28;20156;-68
2021/06/19 00:43:27;;;;;;;8.38;4.13;;;;;;;;;;5034866;28;20031;-68
2021/06/19 00:45:53;;;;;;;8.27;4.38;;;;;;;;;;5034527;28;20444;-66
2021/06/19 00:48:21;;;;;;;6.60;5.03;;;;;;;;;;5034746;28;20025;-65
2021/06/19 00:50:47;;;;;;;5.25;4.75;;;;;;;;;;5034756;28;20121;-67
2021/06/19 00:53:14;;;;;;;9.52;4.68;;;;;;;;;;5050092;28;20104;-67
2021/06/19 00:55:40;;;;;;;8.15;4.60;;;;;;;;;;5034681;28;20022;-66
2021/06/19 00:58:06;;;;;;;8.52;4.43;;;;;;;;;;5049924;28;20024;-67
2021/06/19 01:00:41;;;;;;;8.07;4.88;;;;;;;;;;5033773;28;20053;-67
2021/06/19 01:03:08;;;;;;;6.55;4.43;;;;;;;;;;5034616;28;20055;-67
2021/06/19 01:05:34;;;;;;;5.57;4.47;;;;;;;;;;5034184;28;20029;-67
2021/06/19 01:08:01;;;;;;;7.72;4.40;;;;;;;;;;5034448;28;20097;-67
2021/06/19 01:10:28;;;;;;;8.20;4.88;;;;;;;;;;5034407;28;20343;-66
2021/06/19 01:12:54;;;;;;;7.40;4.85;;;;;;;;;;5049622;28;20060;-66
2021/06/19 01:15:21;;;;;;;6.63;4.97;;;;;;;;;;5033975;28;20355;-66
2021/06/19 01:17:47;;;;;;;6.30;4.45;;;;;;;;;;5033910;28;20434;-67
2021/06/19 01:20:15;;;;;;;6.75;4.32;;;;;;;;;;5034215;28;20541;-67
2021/06/19 01:22:45;;;;;;;7.78;4.60;;;;;;;;;;5049504;28;20120;-66
2021/06/19 01:25:17;;;;;;;7.27;5.00;;;;;;;;;;5034126;28;20037;-65
2021/06/19 01:27:43;;;;;;;6.97;4.60;;;;;;;;;;5034072;28;20599;-67
2021/06/19 01:30:11;;;;;;;7.43;5.05;;;;;;;;;;5033984;28;20166;-67
2021/06/19 01:32:38;;;;;;;6.55;4.60;;;;;;;;;;5033983;28;20116;-67
2021/06/19 01:35:05;;;;;;;8.25;4.88;;;;;;;;;;5049197;28;20553;-67
2021/06/19 01:37:31;;;;;;;10.35;5.22;;;;;;;;;;5049185;28;20652;-66
2021/06/19 01:40:11;;;;;;;9.15;5.15;;;;;;;;;;5033828;28;20022;-66
2021/06/19 01:42:41;;;;;;;9.80;5.43;;;;;;;;;;5033856;28;20492;-66
2021/06/19 01:45:12;;;;;;;6.53;5.22;;;;;;;;;;5049009;28;20355;-67
2021/06/19 01:47:39;;;;;;;6.28;4.78;;;;;;;;;;5033707;28;20114;-67
2021/06/19 01:50:06;;;;;;;7.32;4.80;;;;;;;;;;5048905;28;20125;-67
2021/06/19 01:52:32;;;;;;;6.20;4.95;;;;;;;;;;5048966;28;20104;-65
2021/06/19 01:54:58;;;;;;;6.60;4.63;;;;;;;;;;5048867;28;20025;-69
2021/06/19 01:57:25;;;;;;;10.93;5.28;;;;;;;;;;5033558;28;20068;-67
2021/06/19 02:00:01;;;;;;;8.38;4.75;;;;;;;;;;5048812;28;20031;-68
2021/06/19 02:02:27;;;;;;;8.25;5.05;;;;;;;;;;5032963;28;20060;-67
2021/06/19 02:04:54;;;;;;;9.23;5.47;;;;;;;;;;5033389;28;20036;-65
2021/06/19 02:07:20;;;;;;;8.23;5.03;;;;;;;;;;5033357;28;20083;-66
2021/06/19 02:09:46;;;;;;;6.70;5.35;;;;;;;;;;5048657;28;20017;-69
2021/06/19 02:12:12;;;;;;;9.15;4.70;;;;;;;;;;5048702;28;20137;-69
2021/06/19 02:14:39;;;;;;;8.95;4.70;;;;;;;;;;5033293;28;20025;-67
2021/06/19 02:17:05;;;;;;;7.85;4.38;;;;;;;;;;5033259;28;20487;-68
2021/06/19 02:19:31;;;;;;;7.18;5.25;;;;;;;;;;5048582;28;20184;-66
2021/06/19 02:21:57;;;;;;;5.35;4.45;;;;;;;;;;5032965;28;20096;-69
2021/06/19 02:24:24;;;;;;;8.55;4.57;;;;;;;;;;5032881;28;20120;-69
2021/06/19 02:26:50;;;;;;;5.95;4.35;;;;;;;;;;5033134;28;20021;-70
2021/06/19 02:29:16;;;;;;;10.60;5.43;;;;;;;;;;5033379;28;20484;-68
2021/06/19 02:31:42;;;;;;;6.78;4.88;;;;;;;;;;5033081;28;20083;-68
2021/06/19 02:34:09;;;;;;;6.13;4.25;;;;;;;;;;5033066;28;20182;-69
2021/06/19 02:36:35;;;;;;;8.98;4.75;;;;;;;;;;5033059;28;20075;-68
2021/06/19 02:39:01;;;;;;;6.70;5.28;;;;;;;;;;5038357;28;20027;-67
2021/06/19 02:41:27;;;;;;;8.80;4.70;;;;;;;;;;5039358;28;20105;-69
2021/06/19 02:43:53;;;;;;;7.03;4.78;;;;;;;;;;5054970;28;20029;-69
2021/06/19 02:46:20;;;;;;;6.93;4.70;;;;;;;;;;5039514;28;20053;-68
2021/06/19 02:48:46;;;;;;;9.13;5.03;;;;;;;;;;5039401;28;20056;-67
2021/06/19 02:51:12;;;;;;;5.38;4.82;;;;;;;;;;5039779;28;20029;-68
2021/06/19 02:53:38;;;;;;;8.32;4.80;;;;;;;;;;5054920;28;20026;-68
2021/06/19 02:56:05;;;;;;;7.15;4.05;;;;;;;;;;5039166;28;20373;-67
2021/06/19 02:58:31;;;;;;;11.57;4.88;;;;;;;;;;5039174;28;20375;-68
2021/06/19 03:00:57;;;;;;;9.02;5.15;;;;;;;;;;5039135;28;20084;-68
2021/06/19 03:03:24;;;;;;;5.90;4.78;;;;;;;;;;5039431;28;20522;-67
2021/06/19 03:05:50;;;;;;;7.72;4.88;;;;;;;;;;5039406;28;20033;-70
2021/06/19 03:08:16;;;;;;;7.45;4.95;;;;;;;;;;5039357;28;20056;-68
2021/06/19 03:10:43;;;;;;;6.22;5.10;;;;;;;;;;5039418;28;20477;-67
2021/06/19 03:13:09;;;;;;;6.82;5.00;;;;;;;;;;5039386;28;20462;-69
2021/06/19 03:15:36;;;;;;;10.77;5.72;;;;;;;;;;5039297;28;20481;-67
2021/06/19 03:18:02;;;;;;;9.88;5.03;;;;;;;;;;5039496;28;20044;-68
2021/06/19 03:20:28;;;;;;;8.80;5.18;;;;;;;;;;5039250;28;20017;-69
2021/06/19 03:22:56;;;;;;;14.65;5.22;;;;;;;;;;5039233;28;20513;-68
2021/06/19 03:25:42;;;;;;;14.23;5.05;;;;;;;;;;5039168;28;20104;-68
2021/06/19 03:28:09;;;;;;;9.85;5.45;;;;;;;;;;5039227;28;20033;-68
2021/06/19 03:30:37;;;;;;;8.48;5.05;;;;;;;;;;5039444;28;20032;-67
2021/06/19 03:33:04;;;;;;;6.80;4.50;;;;;;;;;;5039106;28;20025;-69
2021/06/19 03:35:30;;;;;;;8.23;4.95;;;;;;;;;;5039091;28;20021;-70
2021/06/19 03:37:57;;;;;;;8.00;4.93;;;;;;;;;;5038040;28;20053;-67
2021/06/19 03:40:24;;;;;;;6.82;4.72;;;;;;;;;;5054427;28;20052;-69
2021/06/19 03:42:51;;;;;;;6.57;4.47;;;;;;;;;;5039066;28;20466;-69
2021/06/19 03:45:17;;;;;;;9.45;4.72;;;;;;;;;;5054292;28;20034;-70
2021/06/19 03:47:44;;;;;;;7.78;4.82;;;;;;;;;;5038991;28;20021;-68
2021/06/19 03:50:12;;;;;;;8.93;4.97;;;;;;;;;;5050999;28;20033;-69
2021/06/19 03:52:38;;;;;;;7.15;4.63;;;;;;;;;;5035908;28;20119;-69
2021/06/19 03:55:06;;;;;;;4.28;3.80;;;;;;;;;;5051131;28;20052;-70
2021/06/19 03:57:33;;;;;;;5.93;4.28;;;;;;;;;;5035777;28;20028;-71
2021/06/19 03:59:59;;;;;;;6.80;4.80;;;;;;;;;;5050995;28;20386;-70
2021/06/19 04:02:26;;;;;;;12.15;5.43;;;;;;;;;;5050720;28;20060;-71
2021/06/19 04:04:52;;;;;;;14.50;5.20;;;;;;;;;;5050840;28;20060;-70
2021/06/19 04:07:19;;;;;;;7.82;4.53;;;;;;;;;;5051098;28;20446;-71
2021/06/19 04:09:46;;;;;;;6.43;5.45;;;;;;;;;;5035504;28;20030;-71
2021/06/19 04:12:13;;;;;;;8.90;5.05;;;;;;;;;;5035511;28;20029;-71
2021/06/19 04:14:39;;;;;;;9.57;5.38;;;;;;;;;;5035483;28;20040;-69
2021/06/19 04:17:07;;;;;;;9.70;4.60;;;;;;;;;;5035263;28;20091;-70
2021/06/19 04:19:33;;;;;;;8.75;4.70;;;;;;;;;;5035406;28;20465;-71
2021/06/19 04:21:59;;;;;;;6.63;4.85;;;;;;;;;;5035323;28;20065;-70
2021/06/19 04:24:26;;;;;;;8.88;4.70;;;;;;;;;;5035260;28;20121;-69
2021/06/19 04:26:52;;;;;;;11.90;4.53;;;;;;;;;;5035218;28;20075;-71
2021/06/19 04:29:18;;;;;;;11.50;4.78;;;;;;;;;;5050539;28;20422;-69
2021/06/19 04:31:44;;;;;;;8.73;3.97;;;;;;;;;;5050384;28;20029;-67
2021/06/19 04:34:10;;;;;;;9.25;5.22;;;;;;;;;;5035415;28;20497;-70
2021/06/19 04:36:37;;;;;;;6.30;5.15;;;;;;;;;;5035070;28;20032;-71
2021/06/19 04:39:03;;;;;;;6.57;4.72;;;;;;;;;;5050346;28;20124;-71
2021/06/19 04:41:39;;;;;;;10.80;4.80;;;;;;;;;;5050181;28;20485;-71
2021/06/19 04:44:18;;;;;;;6.75;4.85;;;;;;;;;;5050177;28;20478;-71
2021/06/19 04:46:45;;;;;;;6.13;4.30;;;;;;;;;;5050213;28;20034;-68
2021/06/19 04:49:12;;;;;;;5.53;4.38;;;;;;;;;;5050078;28;20382;-70
2021/06/19 04:51:38;;;;;;;6.53;5.10;;;;;;;;;;5034792;28;20026;-72
2021/06/19 04:54:04;;;;;;;5.10;4.40;;;;;;;;;;5050064;28;20029;-70
2021/06/19 04:56:31;;;;;;;10.25;4.57;;;;;;;;;;5049760;28;20017;-70
2021/06/19 04:58:57;;;;;;;15.20;6.97;;;;;;;;;;5034654;28;20025;-70
2021/06/19 05:01:23;;;;;;;8.57;4.57;;;;;;;;;;5034173;28;20046;-67
2021/06/19 05:03:49;;;;;;;7.07;4.70;;;;;;;;;;5034472;28;20037;-67
2021/06/19 05:06:15;;;;;;;9.50;4.38;;;;;;;;;;5034147;28;20022;-71
2021/06/19 05:08:42;;;;;;;6.50;3.97;;;;;;;;;;5034458;28;20285;-71
2021/06/19 05:11:08;;;;;;;9.57;4.28;;;;;;;;;;5034398;28;20060;-70
2021/06/19 05:13:35;;;;;;;8.18;4.78;;;;;;;;;;5034507;28;20104;-67
2021/06/19 05:16:01;;;;;;;10.05;4.45;;;;;;;;;;5049471;28;20029;-70
2021/06/19 05:18:27;;;;;;;6.82;4.40;;;;;;;;;;5049613;28;20022;-71
2021/06/19 05:20:55;;;;;;;13.15;4.18;;;;;;;;;;5049466;28;20374;-73
2021/06/19 05:23:21;;;;;;;9.40;4.35;;;;;;;;;;5034154;28;20068;-69
2021/06/19 05:25:48;;;;;;;6.15;4.20;;;;;;;;;;5049328;28;20035;-71
2021/06/19 05:28:14;;;;;;;7.07;4.00;;;;;;;;;;5049334;28;20024;-73
2021/06/19 05:30:40;;;;;;;7.43;4.93;;;;;;;;;;5049341;28;20450;-69
2021/06/19 05:33:07;;;;;;;4.63;4.15;;;;;;;;;;5034130;28;20027;-72
2021/06/19 05:35:33;;;;;;;10.27;4.60;;;;;;;;;;5033871;28;20032;-71
2021/06/19 05:37:59;;;;;;;7.72;4.30;;;;;;;;;;5033843;28;20025;-70
2021/06/19 05:40:26;;;;;;;8.10;4.45;;;;;;;;;;5033503;28;20540;-74
2021/06/19 05:42:55;;;;;;;8.40;4.20;;;;;;;;;;5049001;28;20087;-72
2021/06/19 05:45:21;;;;;;;8.07;4.38;;;;;;;;;;5033741;28;20113;-71
2021/06/19 05:47:48;;;;;;;6.95;4.32;;;;;;;;;;5033354;28;20061;-74
2021/06/19 05:50:14;;;;;;;7.97;4.13;;;;;;;;;;5033685;28;20025;-71
2021/06/19 05:52:41;;;;;;;10.43;5.45;;;;;;;;;;5033610;28;20028;-70
2021/06/19 05:55:08;;;;;;;9.00;4.22;;;;;;;;;;5033685;28;20029;-74
2021/06/19 05:57:34;;;;;;;10.48;4.63;;;;;;;;;;5033582;28;20112;-70
2021/06/19 06:00:00;;;;;;;11.95;4.78;;;;;;;;;;5033505;28;20022;-70
2021/06/19 06:02:27;;;;;;;7.85;5.40;;;;;;;;;;5033217;28;20524;-69
2021/06/19 06:04:53;;;;;;;15.25;6.28;;;;;;;;;;5033854;28;20021;-69
2021/06/19 06:07:20;;;;;;;6.80;4.43;;;;;;;;;;5048956;28;20120;-72
2021/06/19 06:09:46;;;;;;;10.13;4.80;;;;;;;;;;5033873;28;20029;-72
2021/06/19 06:12:12;;;;;;;9.85;4.95;;;;;;;;;;5033406;28;20025;-70
2021/06/19 06:14:38;;;;;;;10.07;4.80;;;;;;;;;;5048479;28;20029;-72
2021/06/19 06:17:05;;;;;;;7.82;4.47;;;;;;;;;;5033322;28;20053;-68
2021/06/19 06:19:31;;;;;;;19.17;5.25;;;;;;;;;;5033432;28;20060;-71
2021/06/19 06:21:57;;;;;;;7.32;4.65;;;;;;;;;;5032950;28;20466;-67
2021/06/19 06:24:23;;;;;;;6.97;4.28;;;;;;;;;;5048378;28;20034;-71
2021/06/19 06:26:50;;;;;;;7.93;5.75;;;;;;;;;;5033103;28;20061;-70
2021/06/19 06:29:16;;;;;;;5.40;4.25;;;;;;;;;;5048256;28;20022;-70
2021/06/19 06:31:42;;;;;;;11.95;4.68;;;;;;;;;;5032820;28;20029;-71
2021/06/19 06:34:08;;;;;;;8.75;5.10;;;;;;;;;;5032245;28;20028;-68
2021/06/19 06:36:35;;;;;;;6.82;5.10;;;;;;;;;;5033285;28;20049;-68
2021/06/19 06:39:04;;;;;;;6.43;4.68;;;;;;;;;;5048271;28;20026;-72
2021/06/19 06:41:31;;;;;;;7.57;5.30;;;;;;;;;;5032976;28;20025;-73
2021/06/19 06:43:57;;;;;;;6.70;4.65;;;;;;;;;;5032899;28;20022;-71
2021/06/19 06:46:24;;;;;;;6.80;4.18;;;;;;;;;;5032810;28;20030;-75
2021/06/19 06:48:50;;;;;;;9.73;4.72;;;;;;;;;;5032876;28;20025;-71
2021/06/19 06:51:16;;;;;;;11.40;5.20;;;;;;;;;;5048187;28;20537;-70
2021/06/19 06:53:43;;;;;;;5.85;4.60;;;;;;;;;;5047989;28;20061;-72
2021/06/19 06:56:09;;;;;;;7.47;4.20;;;;;;;;;;5048182;28;20032;-70
2021/06/19 06:58:35;;;;;;;9.70;4.47;;;;;;;;;;5032858;28;20477;-73
2021/06/19 07:01:01;;;;;;;6.38;5.13;;;;;;;;;;5032469;28;20029;-70
2021/06/19 07:03:27;;;;;;;9.18;4.30;;;;;;;;;;5032739;28;20116;-73
2021/06/19 07:05:53;;;;;;;7.85;5.05;;;;;;;;;;5047946;28;20473;-73
2021/06/19 07:08:20;;;;;;;6.57;5.07;;;;;;;;;;5013862;28;20113;-71
2021/06/19 07:10:46;;;;;;;8.27;4.57;;;;;;;;;;5012976;28;20033;-70
2021/06/19 07:13:12;;;;;;;7.47;4.47;;;;;;;;;;5012905;28;20117;-67
2021/06/19 07:15:42;;;;;;;8.63;4.20;;;;;;;;;;5028185;28;20128;-69
2021/06/19 07:18:08;;;;;;;5.00;4.13;;;;;;;;;;5012948;28;20030;-68
2021/06/19 07:20:34;;;;;;;6.57;4.85;;;;;;;;;;5012649;28;20597;-66
2021/06/19 07:23:00;;;;;;;9.65;4.97;;;;;;;;;;5013094;28;20125;-69
2021/06/19 07:25:27;;;;;;;10.35;4.35;;;;;;;;;;5015902;28;20079;-69
2021/06/19 07:27:58;;;;;;;5.05;4.50;;;;;;;;;;5031739;28;20038;-68
2021/06/19 07:30:24;;;;;;;12.15;4.60;;;;;;;;;;5016817;28;20354;-66
2021/06/19 07:32:50;;;;;;;7.22;5.30;;;;;;;;;;5016395;28;20030;-67
2021/06/19 07:35:17;;;;;;;4.32;3.88;;;;;;;;;;5016449;28;20032;-67
2021/06/19 07:37:43;;;;;;;7.45;4.53;;;;;;;;;;5016401;28;20045;-67
2021/06/19 07:40:10;;;;;;;5.75;4.07;;;;;;;;;;5031501;28;20378;-67
2021/06/19 07:42:36;;;;;;;9.07;3.88;;;;;;;;;;5031435;28;20470;-66
2021/06/19 07:45:04;;;;;;;6.55;3.67;;;;;;;;;;5015963;28;20041;-66
2021/06/19 07:47:30;;;;;;;5.57;3.78;;;;;;;;;;5016159;28;20127;-66
2021/06/19 07:49:56;;;;;;;6.03;3.13;;;;;;;;;;5015880;28;20037;-68
2021/06/19 07:52:23;;;;;;;8.32;3.65;;;;;;;;;;5016133;28;20067;-67
2021/06/19 07:54:49;;;;;;;6.10;3.33;;;;;;;;;;5016082;28;20060;-66
2021/06/19 07:57:15;;;;;;;5.47;3.70;;;;;;;;;;5016061;28;20030;-66
2021/06/19 07:59:42;;;;;;;9.23;3.47;;;;;;;;;;5016031;28;20026;-65
2021/06/19 08:02:08;;;;;;;5.20;3.70;;;;;;;;;;5030758;28;20379;-67
2021/06/19 08:04:35;;;;;;;6.72;3.70;;;;;;;;;;5015892;28;20028;-66
2021/06/19 08:07:04;;;;;;;9.75;3.50;;;;;;;;;;5035948;28;20116;-68
2021/06/19 08:09:30;;;;;;;9.40;3.58;;;;;;;;;;5019265;28;20053;-64
2021/06/19 08:11:58;;;;;;;6.03;3.50;;;;;;;;;;5035315;28;20032;-67
2021/06/19 08:14:24;;;;;;;5.53;3.72;;;;;;;;;;5035510;28;20017;-66
2021/06/19 08:16:53;;;;;;;8.80;3.80;;;;;;;;;;5035403;28;20022;-65
2021/06/19 08:19:19;;;;;;;9.20;3.67;;;;;;;;;;5035326;28;20022;-63
2021/06/19 08:21:46;;;;;;;6.47;3.45;;;;;;;;;;5034884;28;20045;-66
2021/06/19 08:24:12;;;;;;;5.15;3.28;;;;;;;;;;5034800;28;20068;-64
2021/06/19 08:26:39;;;;;;;4.47;3.38;;;;;;;;;;5035335;28;20124;-63
2021/06/19 08:29:06;;;;;;;6.97;3.13;;;;;;;;;;5050515;28;20088;-66
2021/06/19 08:31:36;;;;;;;4.78;3.42;;;;;;;;;;5035367;28;20425;-66
2021/06/19 08:34:03;;;;;;;8.25;3.25;;;;;;;;;;5035114;28;20053;-64
2021/06/19 08:36:29;;;;;;;3.92;3.45;;;;;;;;;;5034372;28;20033;-65
2021/06/19 08:38:55;;;;;;;7.30;3.45;;;;;;;;;;5035070;28;20127;-67
2021/06/19 08:41:22;;;;;;;3.50;3.20;;;;;;;;;;5035238;28;20033;-67
2021/06/19 08:43:48;;;;;;;4.65;3.15;;;;;;;;;;5049312;28;20040;-68
2021/06/19 08:46:18;;;;;;;4.70;2.80;;;;;;;;;;5049841;28;20466;-67
2021/06/19 08:48:45;;;;;;;5.57;2.88;;;;;;;;;;5034818;28;20030;-67
2021/06/19 08:51:11;;;;;;;4.15;3.10;;;;;;;;;;5034780;28;20113;-68
2021/06/19 08:53:38;;;;;;;8.43;2.97;;;;;;;;;;5034767;28;20121;-68
2021/06/19 08:56:04;;;;;;;4.82;2.60;;;;;;;;;;5034611;28;20100;-68
2021/06/19 08:58:30;;;;;;;3.42;2.88;;;;;;;;;;5034368;28;20034;-68
2021/06/19 09:00:56;;;;;;;4.20;3.20;;;;;;;;;;5034280;28;20112;-69
2021/06/19 09:03:29;;;;;;;4.90;3.00;;;;;;;;;;5034570;28;20151;-67
2021/06/19 09:06:15;;;;;;;4.30;3.40;;;;;;;;;;5049788;28;20120;-69
2021/06/19 09:09:00;;;;;;;6.50;3.25;;;;;;;;;;5049761;28;20039;-65
2021/06/19 09:11:39;;;;;;;5.18;2.97;;;;;;;;;;5041528;28;20121;-68
2021/06/19 09:14:07;;;;;;;6.55;3.42;;;;;;;;;;5014372;28;20483;-66
2021/06/19 09:16:35;;;;;;;5.25;2.90;;;;;;;;;;5029723;28;20030;-69
2021/06/19 09:19:01;;;;;;;12.85;3.13;;;;;;;;;;5014530;28;20037;-73
2021/06/19 09:21:28;;;;;;;7.47;3.08;;;;;;;;;;5014460;28;20033;-70
2021/06/19 09:23:55;;;;;;;9.95;3.22;;;;;;;;;;5014290;28;20105;-71
2021/06/19 09:26:22;;;;;;;5.75;2.65;;;;;;;;;;5029594;28;20382;-71
2021/06/19 09:28:55;;;;;;;5.28;2.80;;;;;;;;;;5029362;28;20033;-69
2021/06/19 09:31:50;;;;;;;3.15;2.85;;;;;;;;;;5014304;28;20048;-71
2021/06/19 09:34:18;;;;;;;3.13;2.83;;;;;;;;;;5005182;28;20394;-72
2021/06/19 09:36:53;;;;;;;4.00;2.78;;;;;;;;;;5014242;28;20030;-70
2021/06/19 09:39:21;;;;;;;3.00;2.80;;;;;;;;;;5014098;28;20025;-69
2021/06/19 09:41:53;;;;;;;4.60;2.40;;;;;;;;;;5014063;28;20617;-70
2021/06/19 09:44:37;;;;;;;3.05;2.20;;;;;;;;;;5013967;28;20458;-71
2021/06/19 09:47:03;;;;;;;5.85;2.28;;;;;;;;;;5013201;28;20484;-71
2021/06/19 09:49:33;;;;;;;3.72;2.83;;;;;;;;;;5013625;28;20485;-72
2021/06/19 09:52:00;;;;;;;6.40;2.70;;;;;;;;;;5029094;28;20033;-72
2021/06/19 09:54:26;;;;;;;2.40;2.20;;;;;;;;;;5028881;28;20033;-70
2021/06/19 09:56:54;;;;;;;2.70;2.50;;;;;;;;;;5029020;28;20486;-72
2021/06/19 09:59:20;;;;;;;5.93;2.83;;;;;;;;;;5013835;28;20108;-72
2021/06/19 10:01:46;;;;;;;5.05;2.67;;;;;;;;;;5028580;28;20140;-70
2021/06/19 10:04:16;;;;;;;10.13;2.47;;;;;;;;;;5043255;28;20040;-72
2021/06/19 10:06:42;;;;;;;7.50;2.80;;;;;;;;;;5033255;28;20022;-72
2021/06/19 10:09:09;;;;;;;3.78;2.45;;;;;;;;;;5033471;28;20018;-69
2021/06/19 10:11:35;;;;;;;2.83;2.58;;;;;;;;;;5033346;28;20018;-69
2021/06/19 10:14:03;;;;;;;4.53;2.55;;;;;;;;;;5048609;28;20160;-72
2021/06/19 10:16:30;;;;;;;2.58;2.00;;;;;;;;;;5048633;28;20017;-70
2021/06/19 10:18:57;;;;;;;6.05;2.58;;;;;;;;;;5033232;28;20381;-69
2021/06/19 10:21:50;;;;;;;3.13;2.28;;;;;;;;;;5033157;28;20025;-70
2021/06/19 10:24:16;;;;;;;2.30;2.20;;;;;;;;;;5047969;28;20053;-66
2021/06/19 10:26:43;;;;;;;2.63;2.38;;;;;;;;;;5033151;28;20034;-72
2021/06/19 10:29:10;;;;;;;5.35;2.47;;;;;;;;;;5033124;28;20339;-68
2021/06/19 10:31:41;;;;;;;2.88;2.08;;;;;;;;;;5033046;28;20017;-71
2021/06/19 10:34:07;;;;;;;;;;;;;;;;;;5048806;28;20041;-70
2021/06/19 10:36:38;;;;;;;7.25;2.30;;;;;;;;;;5032819;28;19916;-69
2021/06/19 10:39:04;;;;;;;2.35;2.20;;;;;;;;;;5032776;28;20018;-70
2021/06/19 10:41:51;;;;;;;2.42;1.95;;;;;;;;;;5033025;28;20056;-69
2021/06/19 10:44:36;;;;;;;3.15;2.13;;;;;;;;;;5032900;28;20109;-71
2021/06/19 10:47:03;;;;;;;2.50;2.30;;;;;;;;;;5048374;28;20367;-69
2021/06/19 10:49:32;;;;;;;2.78;2.40;;;;;;;;;;5048228;28;20022;-70
2021/06/19 10:52:17;;;;;;;2.50;2.30;;;;;;;;;;5032872;28;20116;-71
2021/06/19 10:55:03;;;;;;;3.20;2.03;;;;;;;;;;5048093;28;20045;-67
2021/06/19 10:57:42;;;;;;;3.30;2.50;;;;;;;;;;5032587;28;20382;-70
2021/06/19 11:00:28;;;;;;;4.45;2.88;;;;;;;;;;5035688;28;20026;-70
2021/06/19 11:02:55;;;;;;;4.15;2.13;;;;;;;;;;5036758;28;20073;-71
2021/06/19 11:05:48;;;;;;;5.82;2.15;;;;;;;;;;5036667;28;20362;-70
2021/06/19 11:08:17;;;;;;;3.80;2.10;;;;;;;;;;5036260;28;20120;-71
2021/06/19 11:10:46;;;;;;;3.00;2.58;;;;;;;;;;5036667;28;20462;-68
2021/06/19 11:13:31;;;;;;;2.70;2.50;;;;;;;;;;5036586;28;20022;-68
2021/06/19 11:15:57;;;;;;;8.52;2.13;;;;;;;;;;5036598;28;20462;-67
2021/06/19 11:18:42;;;;;;;2.85;2.17;;;;;;;;;;5051766;28;20025;-68
2021/06/19 11:21:11;;;;;;;3.47;2.38;;;;;;;;;;5036072;28;20069;-68
2021/06/19 11:23:56;;;;;;;3.05;2.08;;;;;;;;;;5051607;28;20039;-68
2021/06/19 11:26:41;;;;;;;5.25;2.33;;;;;;;;;;5036311;28;20044;-68
2021/06/19 11:29:25;;;;;;;4.05;2.03;;;;;;;;;;5036271;28;20021;-69
2021/06/19 11:31:51;;;;;;;5.65;2.60;;;;;;;;;;5036178;28;20030;-69
2021/06/19 11:34:36;;;;;;;4.15;2.80;;;;;;;;;;5036446;28;20156;-69
2021/06/19 11:37:02;;;;;;;5.65;2.72;;;;;;;;;;5051549;28;20036;-69
2021/06/19 11:39:35;;;;;;;6.70;2.25;;;;;;;;;;5036380;28;20066;-70
2021/06/19 11:42:01;;;;;;;3.13;1.92;;;;;;;;;;5036115;28;20022;-70
2021/06/19 11:44:34;;;;;;;4.03;2.50;;;;;;;;;;5035961;28;20026;-69
2021/06/19 11:47:04;;;;;;;2.50;2.03;;;;;;;;;;5036052;28;20068;-69
2021/06/19 11:49:35;;;;;;;2.45;2.13;;;;;;;;;;5036034;28;20024;-67
2021/06/19 11:52:05;;;;;;;4.70;2.45;;;;;;;;;;5035750;28;20136;-68
2021/06/19 11:54:31;;;;;;;6.07;2.78;;;;;;;;;;5042248;28;20025;-65
2021/06/19 11:56:57;;;;;;;6.32;2.55;;;;;;;;;;5045604;28;20459;-67
2021/06/19 11:59:26;;;;;;;3.95;2.45;;;;;;;;;;5015762;28;20030;-66
2021/06/19 12:01:53;;;;;;;5.15;2.55;;;;;;;;;;5030708;28;20056;-67
2021/06/19 12:04:20;;;;;;;2.97;2.70;;;;;;;;;;5015759;28;20045;-67
2021/06/19 12:06:50;;;;;;;2.85;2.55;;;;;;;;;;5015875;28;20080;-68
2021/06/19 12:09:17;;;;;;;4.88;3.15;;;;;;;;;;5015756;28;20370;-68
2021/06/19 12:11:44;;;;;;;3.97;2.45;;;;;;;;;;5014680;28;20037;-67
2021/06/19 12:14:20;;;;;;;4.25;2.67;;;;;;;;;;5015410;28;20152;-68
2021/06/19 12:16:49;;;;;;;9.30;3.00;;;;;;;;;;5015652;28;20022;-69
2021/06/19 12:19:16;;;;;;;7.88;2.75;;;;;;;;;;5015472;28;20037;-66
2021/06/19 12:21:42;;;;;;;5.35;2.38;;;;;;;;;;5015422;28;20154;-69
2021/06/19 12:24:31;;;;;;;5.28;2.22;;;;;;;;;;5015428;28;20069;-68
2021/06/19 12:26:57;;;;;;;3.60;2.63;;;;;;;;;;5027220;28;20068;-69
2021/06/19 12:29:50;;;;;;;2.85;2.30;;;;;;;;;;5033847;28;20018;-68
2021/06/19 12:32:27;;;;;;;5.38;2.53;;;;;;;;;;5033245;28;20041;-69
2021/06/19 12:34:54;;;;;;;6.05;2.42;;;;;;;;;;5035052;28;20496;-69
2021/06/19 12:37:28;;;;;;;4.28;2.47;;;;;;;;;;5035182;28;20032;-70
2021/06/19 12:39:54;;;;;;;2.95;2.20;;;;;;;;;;5035051;28;20017;-70
2021/06/19 12:42:36;;;;;;;3.47;2.20;;;;;;;;;;5034986;28;20018;-69
2021/06/19 12:45:05;;;;;;;3.13;2.22;;;;;;;;;;5034834;28;20386;-69
2021/06/19 12:47:36;;;;;;;3.65;2.25;;;;;;;;;;5034692;28;20112;-69
2021/06/19 12:50:03;;;;;;;5.05;3.25;;;;;;;;;;5034933;28;20159;-70
2021/06/19 12:52:29;;;;;;;2.25;2.10;;;;;;;;;;5034683;28;20024;-69
2021/06/19 12:55:08;;;;;;;3.10;2.30;;;;;;;;;;5034640;28;20117;-69
2021/06/19 12:57:34;;;;;;;3.58;2.30;;;42.10;48.70;;;;;;5033880;28;20018;-69
2021/06/19 13:00:00;;;;;;;2.60;2.38;;;42.00;49.70;;;;;;5027215;28;20068;-71
2021/06/19 13:02:26;;;;;;;4.38;2.47;;;;;;;;;;5013627;28;20061;-70
2021/06/19 13:04:52;;;;;;;5.75;2.42;;;37.10;54.00;;;;;;5013468;28;20113;-70
2021/06/19 13:07:18;;;;;;;3.30;2.80;;;;;;;;;;5014851;28;20109;-69
2021/06/19 13:09:51;;;;;;;2.22;2.13;;;;;;;;;;5014690;28;20080;-70
2021/06/19 13:12:20;;;;;;;2.40;2.20;;;;;;;;;;5014655;28;20029;-71
2021/06/19 13:14:47;;;;;;;2.03;1.90;;;;;;;;;;5013314;28;20451;-70
2021/06/19 13:17:19;;;;;;;2.70;2.50;;;41.30;48.40;;;;;;5014592;28;20459;-71
2021/06/19 13:19:46;;;;;;;2.55;2.10;;;;;;;;;;5014523;28;20470;-70
2021/06/19 13:22:12;;;;;;;3.58;2.58;;;;;;;;;;5014220;28;20018;-70
2021/06/19 13:24:41;;;;;;;2.83;2.33;;;37.50;51.90;;;;;;5014606;28;20145;-71
2021/06/19 13:27:18;;;;;;;3.50;2.38;;;;;;;;;;5014435;28;20026;-70
2021/06/19 13:29:56;;;;;;;2.42;2.22;;;;;;;;;;5014363;28;20489;-71
2021/06/19 13:32:22;;;;;;;2.78;2.10;;;;;;;;;;5014149;28;20034;-68
2021/06/19 13:34:52;;;;;;;5.10;2.58;;;;;;;;;;5014510;28;20072;-72
2021/06/19 13:37:18;;;;;;;2.60;2.40;;;41.20;49.50;;;;;;5014300;28;20022;-71
2021/06/19 13:39:49;;;;;;;2.30;2.20;;;;;;;;;;5014170;28;20036;-69
2021/06/19 13:42:18;;;;;;;2.80;2.60;;;;;;;;;;5014156;28;20030;-67
2021/06/19 13:44:55;;;;;;;2.90;2.00;;;42.60;48.00;;;;;;5014057;28;20145;-71
2021/06/19 13:47:21;;;;;;;3.22;2.33;;;43.10;47.10;;;;;;5014093;28;20041;-72
2021/06/19 13:49:48;;;;;;;2.83;2.15;;;;;;;;;;5012693;28;20061;-70
2021/06/19 13:52:16;;;;;;;9.13;2.88;;;43.30;46.10;;;;;;5012676;28;20068;-70
2021/06/19 13:54:43;;;;;;;3.20;2.25;;;43.00;46.60;;;;;;5013610;28;20378;-70
2021/06/19 13:57:12;;;;;;;3.30;2.67;;;43.20;45.90;;;;;;5013909;28;20485;-69
2021/06/19 13:59:39;;;;;;;3.70;2.00;;;41.60;45.40;;;;;;5013622;28;20025;-70
2021/06/19 14:02:05;;;;;;;3.78;2.25;;;;;;;;;;5013640;28;20053;-71
2021/06/19 14:04:33;;;;;;;4.00;2.47;;;;;;;;;;5013699;28;20455;-70
2021/06/19 14:07:00;;;;;;;6.00;3.08;;;;;;;;;;5013731;28;20041;-69
2021/06/19 14:09:27;;;;;;;3.97;3.42;;;;;;;;;;5013734;28;20033;-71
2021/06/19 14:11:53;;;;;;;4.30;2.17;;;41.10;47.80;;;;;;5013616;28;20029;-70
2021/06/19 14:14:19;;;;;;;2.35;2.20;;;;;;;;;;5013835;28;20037;-70
2021/06/19 14:16:45;;;;;;;2.40;2.20;;;;;;;;;;5013585;28;20068;-70
2021/06/19 14:19:11;;;;;;;2.70;2.13;;;43.00;46.00;;;;;;5013561;28;20053;-68
2021/06/19 14:21:37;;;;;;;4.20;2.00;;;42.60;46.60;;;;;;5013297;28;20478;-69
2021/06/19 14:24:04;;;;;;;6.15;2.80;;;41.60;50.90;;;;;;5011830;28;20037;-70
2021/06/19 14:26:32;;;;;;;4.60;2.40;;;;;;;;;;5013528;28;20033;-70
2021/06/19 14:28:59;;;;;;;2.90;2.10;;;42.50;49.90;;;;;;5013518;28;20026;-73
2021/06/19 14:31:25;;;;;;;2.72;2.30;;;40.90;48.50;;;;;;5013418;28;20072;-69
2021/06/19 14:33:51;;;;;;;2.13;1.83;;;;;;;;;;5012803;28;20030;-70
2021/06/19 14:36:18;;;;;;;3.85;2.60;;;;;;;;;;5013346;28;20022;-71
2021/06/19 14:38:44;;;;;;;4.00;2.75;;;43.70;45.60;;;;;;5013396;28;20034;-71
2021/06/19 14:41:11;;;;;;;18.92;2.95;;;44.30;46.60;;;;;;5013239;28;20357;-68